Time;durP1;ratioP1;P1;durP2;ratioP2;P2;SDS_P1;SDS_P2;PMS_P1;PMS_P2;Temp;Humidity;BMP_temperature;BMP_pressure;BME280_temperature;BME280_humidity;BME280_pressure;Samples;Min_cycle;Max_cycle;Signal;HPM_P1;HPM_P2
2023/04/11 00:00:19;;;;;;;5.47;1.70;;;6.60;99.90;;;;;;4950505;28;20114;-63
2023/04/11 00:02:45;;;;;;;5.05;1.60;;;6.70;99.90;;;;;;4952820;28;20719;-63
2023/04/11 00:05:11;;;;;;;9.25;1.80;;;6.70;99.90;;;;;;4943662;28;20055;-64
2023/04/11 00:07:36;;;;;;;4.47;1.77;;;6.70;99.90;;;;;;4950312;28;20035;-64
2023/04/11 00:10:02;;;;;;;4.60;1.63;;;6.70;99.90;;;;;;4935321;29;20505;-64
2023/04/11 00:12:28;;;;;;;5.00;1.50;;;6.70;99.90;;;;;;4952606;29;20035;-63
2023/04/11 00:14:54;;;;;;;6.60;2.00;;;6.70;99.90;;;;;;4920382;28;20178;-63
2023/04/11 00:17:19;;;;;;;6.00;1.80;;;6.60;99.90;;;;;;4948106;28;20035;-64
2023/04/11 00:19:45;;;;;;;8.13;1.80;;;6.60;99.90;;;;;;4956725;28;20047;-63
2023/04/11 00:22:12;;;;;;;7.35;1.98;;;6.50;99.90;;;;;;4945835;28;20035;-63
2023/04/11 00:24:38;;;;;;;6.15;1.90;;;6.40;99.90;;;;;;4956060;28;20079;-64
2023/04/11 00:27:05;;;;;;;6.53;1.80;;;6.40;99.90;;;;;;4956908;28;20113;-64
2023/04/11 00:29:32;;;;;;;7.65;2.00;;;6.40;99.90;;;;;;4936538;28;20102;-64
2023/04/11 00:31:58;;;;;;;5.30;2.00;;;6.40;99.90;;;;;;4948557;28;20494;-64
2023/04/11 00:34:24;;;;;;;5.32;1.83;;;6.40;99.90;;;;;;4956974;28;20062;-64
2023/04/11 00:36:50;;;;;;;3.45;1.70;;;6.30;99.90;;;;;;4956750;28;20047;-64
2023/04/11 00:39:19;;;;;;;6.72;2.00;;;6.20;99.90;;;;;;4954714;29;20051;-64
2023/04/11 00:41:45;;;;;;;5.57;2.30;;;6.20;99.90;;;;;;4952718;28;20046;-64
2023/04/11 00:44:12;;;;;;;8.63;2.30;;;6.20;99.90;;;;;;4955862;28;20435;-64
2023/04/11 00:46:42;;;;;;;6.05;2.35;;;6.20;99.90;;;;;;4935574;28;20042;-64
2023/04/11 00:49:09;;;;;;;7.00;2.38;;;6.10;99.90;;;;;;4947643;28;20375;-64
2023/04/11 00:51:34;;;;;;;11.32;5.47;;;6.10;99.90;;;;;;4956315;28;20043;-64
2023/04/11 00:54:00;;;;;;;19.08;8.05;;;6.10;99.90;;;;;;4956733;29;20039;-64
2023/04/11 00:56:27;;;;;;;23.35;10.43;;;6.10;99.90;;;;;;4942842;28;20598;-64
2023/04/11 00:58:53;;;;;;;27.42;13.13;;;6.20;99.90;;;;;;4955049;28;20486;-63
2023/04/11 01:01:22;;;;;;;21.95;11.23;;;6.10;99.90;;;;;;4956155;29;20053;-63
2023/04/11 01:03:48;;;;;;;19.45;9.38;;;6.20;99.90;;;;;;4949923;28;20383;-63
2023/04/11 01:06:15;;;;;;;25.70;12.25;;;6.20;99.90;;;;;;4955750;28;20118;-64
2023/04/11 01:08:42;;;;;;;18.45;10.85;;;6.20;99.90;;;;;;4955787;28;20462;-63
2023/04/11 01:11:09;;;;;;;26.48;12.30;;;6.20;99.90;;;;;;4939656;28;20060;-64
2023/04/11 01:13:39;;;;;;;30.30;13.60;;;6.20;99.90;;;;;;4952919;28;20062;-63
2023/04/11 01:16:05;;;;;;;21.65;10.20;;;6.20;99.90;;;;;;4956376;28;20047;-63
2023/04/11 01:18:31;;;;;;;19.17;9.98;;;6.20;99.90;;;;;;4952728;28;20103;-65
2023/04/11 01:20:58;;;;;;;21.10;10.30;;;6.20;99.90;;;;;;4952786;28;20517;-63
2023/04/11 01:23:25;;;;;;;24.17;12.15;;;6.20;99.90;;;;;;4955737;28;20046;-63
2023/04/11 01:25:51;;;;;;;18.52;8.90;;;6.20;99.90;;;;;;4955631;29;20043;-63
2023/04/11 01:28:19;;;;;;;19.42;9.35;;;6.20;99.90;;;;;;4939468;28;20031;-65
2023/04/11 01:30:45;;;;;;;15.30;7.95;;;6.20;99.90;;;;;;4942777;28;20040;-64
2023/04/11 01:33:12;;;;;;;19.25;6.05;;;6.10;99.90;;;;;;4955435;28;20037;-64
2023/04/11 01:35:38;;;;;;;14.80;5.03;;;6.20;99.90;;;;;;4955915;29;20043;-64
2023/04/11 01:38:04;;;;;;;9.90;5.03;;;6.20;99.90;;;;;;4952931;29;20386;-64
2023/04/11 01:40:34;;;;;;;9.27;5.13;;;6.10;99.90;;;;;;4940165;28;20437;-64
2023/04/11 01:43:00;;;;;;;12.02;6.00;;;6.10;99.90;;;;;;4947915;28;20042;-64
2023/04/11 01:45:27;;;;;;;14.05;5.68;;;6.10;99.90;;;;;;4952543;29;20047;-64
2023/04/11 01:47:53;;;;;;;13.63;6.35;;;6.20;99.90;;;;;;4935936;28;20043;-64
2023/04/11 01:50:22;;;;;;;12.95;5.68;;;6.20;99.90;;;;;;4955134;28;20046;-64
2023/04/11 01:52:49;;;;;;;14.23;5.13;;;6.30;99.90;;;;;;4955450;29;20098;-63
2023/04/11 01:55:15;;;;;;;14.02;6.55;;;6.40;99.90;;;;;;4951943;28;20043;-64
2023/04/11 01:57:40;;;;;;;16.60;5.63;;;6.40;99.90;;;;;;4930792;28;20047;-64
2023/04/11 02:00:09;;;;;;;13.60;5.43;;;6.30;99.90;;;;;;4955111;28;20065;-64
2023/04/11 02:02:35;;;;;;;19.10;6.30;;;6.30;99.90;;;;;;4955511;29;20043;-64
2023/04/11 02:05:02;;;;;;;14.40;6.00;;;6.30;99.90;;;;;;4944321;28;20039;-64
2023/04/11 02:07:27;;;;;;;13.00;6.10;;;6.30;99.90;;;;;;4936623;29;20498;-64
2023/04/11 02:09:53;;;;;;;15.90;6.68;;;6.30;99.90;;;;;;4954710;28;20118;-64
2023/04/11 02:12:19;;;;;;;21.50;7.95;;;6.30;99.90;;;;;;4949345;28;20059;-64
2023/04/11 02:14:45;;;;;;;17.77;8.38;;;6.30;99.90;;;;;;4950713;28;20043;-64
2023/04/11 02:17:11;;;;;;;22.95;8.65;;;6.40;99.90;;;;;;4954425;28;20160;-64
2023/04/11 02:19:39;;;;;;;18.05;7.20;;;6.40;99.90;;;;;;4953193;29;20481;-64
2023/04/11 02:22:06;;;;;;;25.10;7.95;;;6.40;99.90;;;;;;4941058;28;20039;-64
2023/04/11 02:24:32;;;;;;;17.27;6.35;;;6.50;99.90;;;;;;4936770;28;20047;-64
2023/04/11 02:26:59;;;;;;;14.07;5.40;;;6.60;99.90;;;;;;4954967;29;20129;-64
2023/04/11 02:29:25;;;;;;;15.10;4.50;;;6.70;99.90;;;;;;4951720;29;20098;-64
2023/04/11 02:31:51;;;;;;;13.45;4.35;;;6.80;99.90;;;;;;4951110;28;20039;-64
2023/04/11 02:34:16;;;;;;;15.40;4.10;;;6.90;99.90;;;;;;4954321;28;20122;-64
2023/04/11 02:36:42;;;;;;;18.38;3.80;;;7.00;99.90;;;;;;4951172;29;20043;-64
2023/04/11 02:39:08;;;;;;;14.10;3.78;;;7.00;99.90;;;;;;4942609;28;20050;-64
2023/04/11 02:41:37;;;;;;;14.63;3.72;;;7.10;99.90;;;;;;4950168;28;20039;-64
2023/04/11 02:44:02;;;;;;;20.15;3.80;;;7.10;99.90;;;;;;4954501;29;20122;-64
2023/04/11 02:46:28;;;;;;;14.88;3.80;;;7.20;99.90;;;;;;4950906;29;20173;-64
2023/04/11 02:48:54;;;;;;;14.50;3.38;;;7.20;99.90;;;;;;4949475;28;20039;-64
2023/04/11 02:51:20;;;;;;;18.63;3.70;;;7.30;99.90;;;;;;4953868;28;20035;-64
2023/04/11 02:53:45;;;;;;;13.90;3.30;;;7.30;99.90;;;;;;4933913;29;20043;-64
2023/04/11 02:56:12;;;;;;;10.70;3.00;;;7.40;99.90;;;;;;4939950;28;20070;-63
2023/04/11 02:58:42;;;;;;;10.57;3.50;;;7.40;99.90;;;;;;4951044;28;20044;-64
2023/04/11 03:01:10;;;;;;;15.23;3.55;;;7.40;99.90;;;;;;4954633;28;20071;-64
2023/04/11 03:03:39;;;;;;;10.93;3.35;;;7.50;99.90;;;;;;4949606;28;20577;-64
2023/04/11 03:06:06;;;;;;;11.85;3.60;;;7.60;99.90;;;;;;4946136;28;20118;-63
2023/04/11 03:08:32;;;;;;;13.15;3.88;;;7.70;99.90;;;;;;4953585;28;20035;-64
2023/04/11 03:10:57;;;;;;;13.93;4.22;;;7.70;99.90;;;;;;4945691;28;20059;-63
2023/04/11 03:13:24;;;;;;;16.70;4.03;;;7.70;99.90;;;;;;4936540;29;20067;-63
2023/04/11 03:15:49;;;;;;;17.30;3.90;;;7.70;99.90;;;;;;4936650;29;20058;-63
2023/04/11 03:18:15;;;;;;;14.80;4.00;;;7.70;99.90;;;;;;4950138;29;20039;-63
2023/04/11 03:20:40;;;;;;;11.80;3.05;;;7.60;99.90;;;;;;4943695;28;20042;-63
2023/04/11 03:23:06;;;;;;;16.75;3.70;;;7.60;99.90;;;;;;4936540;29;20066;-63
2023/04/11 03:25:32;;;;;;;13.52;4.10;;;7.60;99.90;;;;;;4936244;29;20036;-63
2023/04/11 03:27:57;;;;;;;16.27;3.83;;;7.60;99.90;;;;;;4946256;28;20525;-63
2023/04/11 03:30:23;;;;;;;15.93;4.13;;;7.60;99.90;;;;;;4945008;28;20142;-63
2023/04/11 03:32:48;;;;;;;10.55;3.30;;;7.70;99.90;;;;;;4952227;28;20520;-63
2023/04/11 03:35:14;;;;;;;11.52;3.35;;;7.70;99.90;;;;;;4945299;28;20042;-63
2023/04/11 03:37:39;;;;;;;15.95;3.40;;;7.80;99.90;;;;;;4946804;28;20549;-63
2023/04/11 03:40:08;;;;;;;19.50;3.17;;;7.80;99.90;;;;;;4953641;28;20074;-63
2023/04/11 03:42:35;;;;;;;13.35;3.22;;;7.80;99.90;;;;;;4947583;28;20099;-64
2023/04/11 03:45:00;;;;;;;15.63;3.85;;;7.90;99.90;;;;;;4939640;28;20139;-63
2023/04/11 03:47:26;;;;;;;13.57;3.42;;;7.80;99.90;;;;;;4942360;28;20122;-64
2023/04/11 03:49:52;;;;;;;12.50;3.47;;;7.80;99.90;;;;;;4953082;28;20694;-63
2023/04/11 03:52:17;;;;;;;15.00;3.40;;;7.80;99.90;;;;;;4946777;28;20502;-63
2023/04/11 03:54:43;;;;;;;14.93;3.38;;;7.80;99.90;;;;;;4951805;28;20534;-64
2023/04/11 03:57:09;;;;;;;17.08;3.17;;;7.70;99.90;;;;;;4953187;29;20043;-63
2023/04/11 03:59:35;;;;;;;16.20;3.28;;;7.70;99.90;;;;;;4953324;29;20134;-63
2023/04/11 04:02:01;;;;;;;14.70;3.13;;;7.70;99.90;;;;;;4936201;28;20121;-63
2023/04/11 04:04:27;;;;;;;12.93;3.35;;;7.70;99.90;;;;;;4949366;28;20364;-63
2023/04/11 04:06:55;;;;;;;13.20;3.72;;;7.80;99.90;;;;;;4948984;28;20046;-63
2023/04/11 04:09:22;;;;;;;12.85;3.15;;;7.80;99.90;;;;;;4948174;28;20071;-63
2023/04/11 04:11:48;;;;;;;7.43;2.78;;;7.70;99.90;;;;;;4953236;28;20039;-63
2023/04/11 04:14:14;;;;;;;10.13;3.28;;;7.70;99.90;;;;;;4952848;29;20031;-63
2023/04/11 04:16:40;;;;;;;10.57;3.08;;;7.70;99.90;;;;;;4949710;28;20074;-63
2023/04/11 04:19:05;;;;;;;16.33;3.55;;;7.70;99.90;;;;;;4946442;28;20382;-63
2023/04/11 04:21:31;;;;;;;10.70;2.92;;;7.70;99.90;;;;;;4952180;28;20379;-63
2023/04/11 04:24:02;;;;;;;15.00;3.38;;;7.80;99.90;;;;;;4953350;28;20402;-63
2023/04/11 04:26:30;;;;;;;14.82;3.30;;;7.70;99.90;;;;;;4939949;28;20036;-63
2023/04/11 04:29:03;;;;;;;8.48;2.90;;;7.80;99.90;;;;;;4930162;28;20031;-63
2023/04/11 04:31:32;;;;;;;13.05;3.20;;;7.80;99.90;;;;;;4942358;28;20056;-63
2023/04/11 04:34:02;;;;;;;9.32;2.88;;;7.80;99.90;;;;;;4945277;28;20035;-63
2023/04/11 04:36:28;;;;;;;14.95;3.28;;;7.70;99.90;;;;;;4953275;29;20126;-63
2023/04/11 04:38:56;;;;;;;11.23;3.03;;;7.80;99.90;;;;;;4944966;28;20043;-64
2023/04/11 04:41:22;;;;;;;13.50;3.38;;;7.90;99.90;;;;;;4947534;28;20525;-63
2023/04/11 04:43:47;;;;;;;13.05;3.30;;;7.90;99.90;;;;;;4952128;28;20043;-63
2023/04/11 04:46:13;;;;;;;12.15;3.00;;;7.90;99.90;;;;;;4945343;28;20398;-64
2023/04/11 04:48:39;;;;;;;17.00;3.30;;;7.90;99.90;;;;;;4952009;28;20042;-64
2023/04/11 04:51:06;;;;;;;12.35;3.22;;;8.00;99.90;;;;;;4952431;28;20054;-64
2023/04/11 04:53:33;;;;;;;16.42;3.72;;;8.00;99.90;;;;;;4940806;28;20054;-63
2023/04/11 04:56:00;;;;;;;9.77;3.42;;;8.00;99.90;;;;;;4950472;28;20043;-64
2023/04/11 04:58:26;;;;;;;16.50;3.53;;;8.00;99.90;;;;;;4949731;28;20071;-64
2023/04/11 05:00:56;;;;;;;15.90;3.72;;;8.00;99.90;;;;;;4940633;28;20035;-63
2023/04/11 05:03:21;;;;;;;10.93;3.30;;;8.00;99.90;;;;;;4948445;28;20039;-63
2023/04/11 05:05:48;;;;;;;10.63;3.28;;;8.00;99.90;;;;;;4928237;29;20048;-63
2023/04/11 05:08:14;;;;;;;17.35;3.58;;;8.00;99.90;;;;;;4935803;28;20036;-64
2023/04/11 05:10:40;;;;;;;14.00;3.60;;;8.10;99.90;;;;;;4946102;28;20070;-64
2023/04/11 05:13:05;;;;;;;12.10;3.33;;;8.10;99.90;;;;;;4955788;28;20081;-63
2023/04/11 05:15:31;;;;;;;11.60;3.47;;;8.10;99.90;;;;;;4952656;28;20070;-64
2023/04/11 05:17:56;;;;;;;12.00;4.03;;;8.10;99.90;;;;;;4947094;28;20122;-63
2023/04/11 05:20:23;;;;;;;11.25;3.75;;;8.20;99.90;;;;;;4955473;28;20405;-63
2023/04/11 05:22:49;;;;;;;12.05;3.42;;;8.20;99.90;;;;;;4956105;29;20459;-63
2023/04/11 05:25:15;;;;;;;14.70;3.47;;;8.20;99.90;;;;;;4941753;28;20490;-63
2023/04/11 05:27:41;;;;;;;13.85;3.65;;;8.20;99.90;;;;;;4946909;28;20050;-64
2023/04/11 05:30:07;;;;;;;6.75;3.00;;;8.20;99.90;;;;;;4955996;28;20094;-64
2023/04/11 05:32:32;;;;;;;11.35;3.50;;;8.20;99.90;;;;;;4952124;28;20043;-63
2023/04/11 05:34:58;;;;;;;9.93;3.22;;;8.20;99.90;;;;;;4947096;28;20062;-63
2023/04/11 05:37:24;;;;;;;9.13;3.33;;;8.10;99.90;;;;;;4955203;28;20046;-63
2023/04/11 05:39:51;;;;;;;10.43;3.03;;;8.10;99.90;;;;;;4955563;29;20078;-63
2023/04/11 05:42:17;;;;;;;9.23;3.45;;;8.20;99.90;;;;;;4941534;28;20047;-63
2023/04/11 05:44:43;;;;;;;10.50;2.80;;;8.20;99.90;;;;;;4953073;28;20039;-63
2023/04/11 05:47:10;;;;;;;10.23;3.08;;;8.30;99.90;;;;;;4938654;29;20402;-63
2023/04/11 05:49:36;;;;;;;11.20;3.55;;;8.30;99.90;;;;;;4951058;28;20054;-63
2023/04/11 05:52:01;;;;;;;8.13;2.67;;;8.30;99.90;;;;;;4954384;28;20035;-63
2023/04/11 05:54:32;;;;;;;8.82;3.08;;;8.40;99.90;;;;;;4955184;28;20051;-63
2023/04/11 05:56:57;;;;;;;8.70;2.60;;;8.40;99.90;;;;;;4932457;29;20675;-64
2023/04/11 05:59:23;;;;;;;9.25;2.53;;;8.40;99.90;;;;;;4943947;28;20046;-63
2023/04/11 06:01:49;;;;;;;12.10;3.45;;;8.40;99.90;;;;;;4953759;28;20138;-63
2023/04/11 06:04:15;;;;;;;13.02;3.28;;;8.40;99.90;;;;;;4938317;29;20066;-63
2023/04/11 06:06:42;;;;;;;9.60;3.20;;;8.50;99.90;;;;;;4953360;29;20054;-64
2023/04/11 06:09:11;;;;;;;8.02;2.75;;;8.50;99.90;;;;;;4941172;28;20071;-64
2023/04/11 06:11:36;;;;;;;9.05;2.80;;;8.50;99.90;;;;;;4952085;28;20053;-64
2023/04/11 06:14:02;;;;;;;8.55;2.90;;;8.60;99.90;;;;;;4951801;28;20043;-64
2023/04/11 06:16:28;;;;;;;7.88;2.70;;;8.60;99.90;;;;;;4938549;28;20173;-64
2023/04/11 06:18:53;;;;;;;10.77;3.22;;;8.60;99.90;;;;;;4950953;28;20517;-64
2023/04/11 06:21:20;;;;;;;12.05;2.92;;;8.70;99.90;;;;;;4954873;29;20124;-64
2023/04/11 06:23:45;;;;;;;8.35;3.00;;;8.70;99.90;;;;;;4940156;28;21055;-64
2023/04/11 06:26:11;;;;;;;6.55;2.70;;;8.70;99.90;;;;;;4950478;28;20039;-63
2023/04/11 06:28:36;;;;;;;9.65;2.90;;;8.70;99.90;;;;;;4939785;28;20047;-64
2023/04/11 06:31:02;;;;;;;11.85;3.28;;;8.70;99.90;;;;;;4940171;28;20035;-64
2023/04/11 06:33:28;;;;;;;9.07;2.63;;;8.70;99.90;;;;;;4950275;28;20035;-64
2023/04/11 06:35:53;;;;;;;11.80;3.15;;;8.70;99.90;;;;;;4953398;28;20453;-64
2023/04/11 06:38:19;;;;;;;10.73;2.90;;;8.80;99.90;;;;;;4953106;29;20427;-64
2023/04/11 06:40:45;;;;;;;11.10;3.42;;;8.80;99.90;;;;;;4948719;28;20442;-63
2023/04/11 06:43:10;;;;;;;8.88;2.90;;;8.80;99.90;;;;;;4929346;28;20074;-64
2023/04/11 06:45:36;;;;;;;8.02;2.72;;;8.80;99.90;;;;;;4945676;28;20054;-67
2023/04/11 06:48:01;;;;;;;11.02;2.72;;;8.70;99.90;;;;;;4949786;28;20039;-65
2023/04/11 06:50:27;;;;;;;7.80;2.80;;;8.70;99.90;;;;;;4939960;28;20036;-65
2023/04/11 06:52:52;;;;;;;6.85;2.60;;;8.80;99.90;;;;;;4942114;28;20045;-62
2023/04/11 06:55:18;;;;;;;10.15;3.13;;;8.80;99.90;;;;;;4948752;28;20043;-62
2023/04/11 06:57:44;;;;;;;11.85;2.92;;;8.70;99.90;;;;;;4953509;28;20049;-63
2023/04/11 07:00:11;;;;;;;11.63;3.10;;;8.80;99.90;;;;;;4949330;28;20039;-63
2023/04/11 07:02:38;;;;;;;7.03;2.40;;;8.80;99.90;;;;;;4951642;28;20054;-64
2023/04/11 07:05:04;;;;;;;10.30;2.75;;;8.80;99.90;;;;;;4948117;28;20118;-65
2023/04/11 07:07:30;;;;;;;9.45;2.72;;;8.80;99.90;;;;;;4948872;28;20047;-63
2023/04/11 07:09:56;;;;;;;9.85;2.90;;;8.90;99.90;;;;;;4953471;28;20055;-64
2023/04/11 07:12:21;;;;;;;9.13;2.83;;;8.90;99.90;;;;;;4953919;29;20039;-64
2023/04/11 07:14:47;;;;;;;12.40;2.72;;;9.00;99.90;;;;;;4931371;28;20123;-63
2023/04/11 07:17:12;;;;;;;9.18;2.70;;;9.00;99.90;;;;;;4939776;28;20050;-64
2023/04/11 07:19:38;;;;;;;9.52;2.28;;;9.10;99.90;;;;;;4942555;28;20054;-64
2023/04/11 07:22:03;;;;;;;9.48;2.60;;;9.10;99.90;;;;;;4942496;28;20054;-63
2023/04/11 07:24:29;;;;;;;14.75;3.03;;;9.20;99.90;;;;;;4946241;28;20044;-64
2023/04/11 07:26:57;;;;;;;9.20;3.50;;;9.10;99.90;;;;;;4942907;28;20414;-63
2023/04/11 07:29:23;;;;;;;12.32;2.50;;;9.20;99.90;;;;;;4947496;29;20036;-64
2023/04/11 07:31:50;;;;;;;12.77;2.47;;;9.20;99.90;;;;;;4942953;28;20040;-64
2023/04/11 07:34:16;;;;;;;9.85;2.63;;;9.20;99.90;;;;;;4953145;28;20569;-64
2023/04/11 07:36:41;;;;;;;11.95;2.95;;;9.20;99.90;;;;;;4951188;28;20134;-64
2023/04/11 07:39:08;;;;;;;6.40;2.30;;;9.20;99.90;;;;;;4943655;28;20047;-64
2023/04/11 07:41:35;;;;;;;11.07;2.50;;;9.30;99.90;;;;;;4952646;28;20053;-64
2023/04/11 07:44:03;;;;;;;11.48;2.80;;;9.30;99.90;;;;;;4953667;29;20138;-64
2023/04/11 07:46:29;;;;;;;8.27;2.30;;;9.30;99.90;;;;;;4949411;29;20072;-65
2023/04/11 07:48:54;;;;;;;8.65;2.55;;;9.40;99.90;;;;;;4943260;28;20069;-65
2023/04/11 07:51:20;;;;;;;6.78;2.35;;;9.60;99.90;;;;;;4952883;28;20498;-66
2023/04/11 07:53:45;;;;;;;13.50;2.63;;;9.70;99.90;;;;;;4953749;29;20050;-66
2023/04/11 07:56:11;;;;;;;14.80;2.63;;;9.70;99.90;;;;;;4921956;29;20106;-66
2023/04/11 07:58:36;;;;;;;10.15;3.38;;;9.70;99.90;;;;;;4949986;28;20494;-66
2023/04/11 08:01:02;;;;;;;8.57;2.40;;;9.70;99.90;;;;;;4953780;29;20039;-66
2023/04/11 08:03:28;;;;;;;9.73;2.65;;;9.70;99.90;;;;;;4943119;28;20039;-66
2023/04/11 08:05:55;;;;;;;13.35;2.40;;;9.90;99.90;;;;;;4944389;28;20054;-66
2023/04/11 08:08:20;;;;;;;13.38;2.47;;;9.90;99.90;;;;;;4934125;28;20558;-66
2023/04/11 08:10:46;;;;;;;13.65;2.58;;;10.10;99.90;;;;;;4937581;28;20130;-66
2023/04/11 08:13:11;;;;;;;9.40;2.20;;;10.00;99.90;;;;;;4922996;29;20114;-66
2023/04/11 08:15:37;;;;;;;11.55;2.90;;;9.80;99.90;;;;;;4943390;28;20499;-66
2023/04/11 08:18:04;;;;;;;8.25;2.40;;;9.70;99.90;;;;;;4943634;28;20494;-66
2023/04/11 08:20:29;;;;;;;9.35;2.75;;;9.70;99.90;;;;;;4949649;28;20058;-66
2023/04/11 08:22:55;;;;;;;8.63;2.47;;;9.80;99.90;;;;;;4940293;29;20464;-66
2023/04/11 08:25:23;;;;;;;8.05;2.75;;;9.90;99.90;;;;;;4939828;28;20039;-66
2023/04/11 08:27:49;;;;;;;12.60;2.67;;;9.90;99.90;;;;;;4940718;28;20042;-66
2023/04/11 08:30:16;;;;;;;16.50;2.95;;;10.00;99.90;;;;;;4946080;28;20131;-66
2023/04/11 08:32:42;;;;;;;10.60;2.92;;;9.90;99.90;;;;;;4935602;29;20055;-66
2023/04/11 08:35:08;;;;;;;10.50;2.50;;;9.90;99.90;;;;;;4944564;28;20040;-66
2023/04/11 08:37:34;;;;;;;10.50;2.92;;;9.90;99.90;;;;;;4948265;28;20466;-66
2023/04/11 08:39:59;;;;;;;12.07;3.08;;;9.90;99.90;;;;;;4955215;28;20039;-66
2023/04/11 08:42:27;;;;;;;7.15;2.58;;;10.00;99.90;;;;;;4945270;28;20040;-66
2023/04/11 08:44:58;;;;;;;10.98;2.78;;;10.00;99.90;;;;;;4950867;28;20089;-65
2023/04/11 08:47:24;;;;;;;10.20;2.85;;;10.00;99.90;;;;;;4948390;28;20042;-65
2023/04/11 08:49:51;;;;;;;17.88;3.10;;;9.70;99.90;;;;;;4963541;28;20072;-66
2023/04/11 08:52:20;;;;;;;8.07;2.30;;;9.20;99.90;;;;;;4955985;29;20039;-65
2023/04/11 08:54:53;;;;;;;6.38;2.15;;;8.30;99.90;;;;;;4951650;28;20178;-65
2023/04/11 08:57:26;;;;;;;8.85;2.70;;;7.90;99.90;;;;;;4941535;28;20039;-64
2023/04/11 08:59:54;;;;;;;10.13;2.40;;;7.80;99.90;;;;;;4950448;28;20131;-64
2023/04/11 09:02:20;;;;;;;11.73;2.72;;;8.00;99.90;;;;;;4963287;23;20180;-64
2023/04/11 09:04:46;;;;;;;12.68;2.70;;;8.10;99.90;;;;;;4971127;28;20055;-64
2023/04/11 09:07:12;;;;;;;11.00;3.05;;;8.10;99.90;;;;;;4969790;28;20141;-65
2023/04/11 09:09:38;;;;;;;9.35;3.05;;;8.20;99.90;;;;;;4972519;28;20038;-65
2023/04/11 09:12:04;;;;;;;12.48;3.17;;;8.30;99.90;;;;;;4962631;28;20038;-65
2023/04/11 09:14:30;;;;;;;9.57;2.97;;;8.20;99.90;;;;;;4963600;28;20051;-65
2023/04/11 09:17:05;;;;;;;13.15;2.53;;;7.40;99.90;;;;;;4975128;28;20046;-65
2023/04/11 09:19:32;;;;;;;8.18;2.65;;;7.00;99.90;;;;;;4962349;28;20401;-65
2023/04/11 09:22:00;;;;;;;10.60;2.42;;;6.90;99.90;;;;;;4955528;28;20031;-65
2023/04/11 09:24:26;;;;;;;8.60;2.42;;;7.00;99.90;;;;;;4955973;28;20118;-65
2023/04/11 09:27:14;;;;;;;12.65;2.35;;;7.00;99.90;;;;;;4954224;28;20050;-65
2023/04/11 09:29:44;;;;;;;7.40;2.47;;;7.00;99.90;;;;;;4959744;28;20050;-65
2023/04/11 09:32:31;;;;;;;7.80;2.20;;;7.00;99.90;;;;;;4955352;28;20401;-64
2023/04/11 09:35:17;;;;;;;10.43;2.95;;;7.00;99.90;;;;;;4937421;28;20043;-64
2023/04/11 09:37:55;;;;;;;9.05;2.92;;;7.20;99.90;;;;;;4946998;28;20514;-65
2023/04/11 09:40:25;;;;;;;11.40;2.92;;;7.80;99.90;;;;;;4955726;28;20030;-65
2023/04/11 09:43:02;;;;;;;9.57;2.73;;;8.10;99.90;;;;;;4955669;29;20039;-65
2023/04/11 09:45:29;;;;;;;10.77;3.00;;;8.10;99.90;;;;;;4953233;28;20307;-65
2023/04/11 09:47:57;;;;;;;8.65;2.40;;;8.10;99.90;;;;;;4955937;28;20046;-64
2023/04/11 09:50:23;;;;;;;7.55;2.30;;;7.80;99.90;;;;;;4955372;28;20035;-65
2023/04/11 09:52:51;;;;;;;8.85;2.20;;;7.50;99.90;;;;;;4953983;28;20074;-65
2023/04/11 09:55:22;;;;;;;8.52;2.25;;;7.10;99.90;;;;;;4955039;28;20047;-64
2023/04/11 09:57:49;;;;;;;9.52;2.70;;;7.00;99.90;;;;;;4955009;28;20122;-64
2023/04/11 10:00:20;;;;;;;13.00;2.60;;;7.10;99.90;;;;;;4953400;28;20039;-64
2023/04/11 10:02:48;;;;;;;8.35;2.92;;;7.40;99.90;;;;;;4954695;28;20046;-65
2023/04/11 10:05:16;;;;;;;10.48;2.80;;;7.80;99.90;;;;;;4954973;28;20039;-65
2023/04/11 10:08:07;;;;;;;9.52;2.58;;;8.40;99.90;;;;;;4955021;29;20049;-65
2023/04/11 10:10:34;;;;;;;10.20;2.70;;;8.70;99.90;;;;;;4959681;28;20054;-65
2023/04/11 10:13:00;;;;;;;8.90;2.45;;;8.80;99.90;;;;;;4954587;28;20039;-65
2023/04/11 10:15:25;;;;;;;10.40;3.00;;;8.80;99.90;;;;;;4955420;29;20518;-65
2023/04/11 10:18:11;;;;;;;11.40;2.80;;;8.80;99.90;;;;;;4953077;28;20043;-65
2023/04/11 10:20:45;;;;;;;9.57;2.97;;;8.90;99.90;;;;;;4958044;28;20425;-65
2023/04/11 10:23:12;;;;;;;12.85;2.45;;;9.30;99.90;;;;;;4954684;28;20047;-65
2023/04/11 10:25:57;;;;;;;6.03;2.30;;;9.40;99.90;;;;;;4956724;28;20108;-65
2023/04/11 10:28:37;;;;;;;10.68;2.47;;;9.60;99.90;;;;;;4954082;28;20494;-65
2023/04/11 10:31:05;;;;;;;9.73;2.95;;;10.00;99.90;;;;;;4954707;28;20499;-65
2023/04/11 10:33:32;;;;;;;9.02;2.60;;;10.00;99.90;;;;;;4936068;28;20058;-65
2023/04/11 10:36:04;;;;;;;8.35;2.50;;;9.80;99.90;;;;;;4957648;28;20122;-65
2023/04/11 10:38:50;;;;;;;8.68;2.33;;;9.90;99.90;;;;;;4936912;29;20126;-65
2023/04/11 10:41:32;;;;;;;11.48;2.30;;;10.00;99.90;;;;;;4953081;28;20138;-65
2023/04/11 10:44:24;;;;;;;10.55;2.90;;;10.10;99.90;;;;;;4955940;28;20059;-65
2023/04/11 10:46:52;;;;;;;14.85;3.58;;;9.80;99.90;;;;;;4952109;28;20047;-66
2023/04/11 10:49:35;;;;;;;13.32;2.38;;;9.70;99.90;;;;;;4953912;28;20086;-65
2023/04/11 10:52:17;;;;;;;10.02;2.33;;;9.60;99.90;;;;;;4954471;28;20043;-65
2023/04/11 10:54:45;;;;;;;7.72;2.13;;;9.50;99.90;;;;;;4934725;28;20054;-66
2023/04/11 10:57:10;;;;;;;12.70;1.95;;;9.00;99.90;;;;;;4954163;28;20078;-65
2023/04/11 10:59:36;;;;;;;9.43;2.13;;;8.80;99.90;;;;;;4949922;28;20040;-65
2023/04/11 11:02:02;;;;;;;10.38;2.13;;;8.80;99.90;;;;;;4957979;28;20039;-65
2023/04/11 11:04:31;;;;;;;9.32;1.98;;;9.00;99.90;;;;;;4954026;28;20035;-65
2023/04/11 11:07:03;;;;;;;10.05;2.95;;;9.20;99.90;;;;;;4953868;28;20465;-65
2023/04/11 11:09:29;;;;;;;12.93;2.83;;;9.30;99.90;;;;;;4936574;28;20058;-65
2023/04/11 11:12:08;;;;;;;9.13;2.28;;;9.50;99.90;;;;;;4953657;28;20035;-65
2023/04/11 11:14:33;;;;;;;11.05;2.22;;;9.60;99.90;;;;;;4953726;28;20050;-66
2023/04/11 11:16:59;;;;;;;14.63;2.67;;;9.60;99.90;;;;;;4952929;28;20043;-65
2023/04/11 11:19:25;;;;;;;8.63;2.00;;;9.60;99.90;;;;;;4935987;29;20058;-66
2023/04/11 11:21:51;;;;;;;9.65;2.33;;;9.80;99.90;;;;;;4966994;28;20045;-65
2023/04/11 11:24:24;;;;;;;9.68;2.15;;;10.10;99.90;;;;;;4959866;28;20039;-65
2023/04/11 11:26:51;;;;;;;6.00;1.95;;;10.70;99.90;;;;;;4961280;28;20074;-66
2023/04/11 11:29:32;;;;;;;6.22;1.80;;;11.20;99.90;;;;;;4953191;28;20553;-65
2023/04/11 11:31:59;;;;;;;10.80;1.80;;;11.50;99.90;;;;;;4958500;28;20132;-66
2023/04/11 11:34:27;;;;;;;6.07;1.50;;;11.60;99.90;;;;;;4961831;28;20058;-65
2023/04/11 11:36:55;;;;;;;9.13;2.33;;;11.30;99.90;;;;;;4963325;28;20039;-66
2023/04/11 11:39:20;;;;;;;6.10;1.60;;;11.30;99.90;;;;;;4953671;29;20035;-65
2023/04/11 11:41:47;;;;;;;5.03;1.80;;;11.30;99.90;;;;;;4953791;28;20081;-65
2023/04/11 11:44:26;;;;;;;11.30;1.83;;;11.50;99.90;;;;;;4953195;28;20043;-65
2023/04/11 11:47:13;;;;;;;4.97;1.60;;;11.40;99.90;;;;;;4952983;28;20043;-65
2023/04/11 11:49:46;;;;;;;3.90;1.58;;;11.20;99.90;;;;;;4936856;28;20051;-65
2023/04/11 11:52:29;;;;;;;5.72;1.98;;;11.20;99.90;;;;;;4952891;28;20035;-65
2023/04/11 11:54:56;;;;;;;6.35;2.03;;;11.00;99.90;;;;;;4953152;28;20043;-65
2023/04/11 11:57:22;;;;;;;7.50;2.35;;;11.20;99.90;;;;;;4953329;29;20062;-65
2023/04/11 11:59:55;;;;;;;8.70;2.25;;;11.00;99.90;;;;;;4941408;28;20051;-65
2023/04/11 12:02:24;;;;;;;9.70;2.15;;;11.00;99.90;;;;;;4953031;28;20043;-65
2023/04/11 12:04:56;;;;;;;9.10;1.77;;;10.90;99.90;;;;;;4953181;28;20136;-65
2023/04/11 12:07:22;;;;;;;10.82;2.25;;;10.90;99.90;;;;;;4955331;28;20035;-65
2023/04/11 12:09:48;;;;;;;8.50;2.47;;;10.70;99.90;;;;;;4952606;28;20130;-65
2023/04/11 12:12:16;;;;;;;7.45;1.77;;;10.60;99.90;;;;;;4953670;28;20083;-65
2023/04/11 12:14:52;;;;;;;8.85;2.20;;;10.70;99.90;;;;;;4960147;28;20057;-65
2023/04/11 12:17:18;;;;;;;6.45;1.98;;;10.90;99.90;;;;;;4956442;28;20039;-65
2023/04/11 12:19:43;;;;;;;7.88;1.88;;;10.80;99.90;;;;;;4957005;28;20387;-65
2023/04/11 12:22:09;;;;;;;7.50;1.80;;;10.80;99.90;;;;;;4954378;28;20134;-65
2023/04/11 12:24:35;;;;;;;5.47;2.28;;;10.80;99.90;;;;;;4963383;28;20036;-65
2023/04/11 12:27:00;;;;;;;8.30;1.80;;;10.80;99.90;;;;;;4956743;28;20489;-65
2023/04/11 12:29:26;;;;;;;7.82;2.13;;;10.80;99.90;;;;;;4954891;28;20093;-65
2023/04/11 12:31:51;;;;;;;7.45;1.75;;;10.80;99.90;;;;;;4957722;28;20071;-65
2023/04/11 12:34:17;;;;;;;8.23;2.17;;;10.70;99.90;;;;;;4956517;28;20457;-65
2023/04/11 12:36:42;;;;;;;5.35;1.85;;;10.60;99.90;;;;;;4956743;29;20533;-65
2023/04/11 12:39:08;;;;;;;8.10;2.72;;;10.80;99.90;;;;;;4953759;28;20173;-65
2023/04/11 12:41:34;;;;;;;9.10;1.92;;;10.90;99.90;;;;;;4953844;28;20402;-65
2023/04/11 12:44:01;;;;;;;7.25;1.95;;;11.20;99.90;;;;;;4956289;28;20066;-65
2023/04/11 12:46:26;;;;;;;7.70;2.22;;;11.40;99.90;;;;;;4956663;28;20085;-65
2023/04/11 12:48:52;;;;;;;8.98;2.20;;;11.70;99.90;;;;;;4956540;29;20508;-66
2023/04/11 12:51:17;;;;;;;5.78;1.90;;;12.00;99.90;;;;;;4961617;28;20039;-65